Time,TemperatureF,DewpointF,PressureIn,WindDirection,WindDirectionDegrees,WindSpeedMPH,WindSpeedGustMPH,Humidity,HourlyPrecipIn,Conditions,Clouds,dailyrainin,SoftwareType,DateUTC
2013-04-17 00:05:00,69.6,67.0,22.55,East,88,1.0,-999.0,91,-99.99,,,0.00,weatherlink.com 1.10,2013-04-17 05:05:00,
2013-04-17 00:20:00,69.5,67.0,22.55,ENE,65,0.0,-999.0,91,-99.99,,,0.00,weatherlink.com 1.10,2013-04-17 05:20:00,
2013-04-17 00:35:00,69.4,67.0,22.55,ESE,108,0.0,-999.0,91,-99.99,,,0.00,weatherlink.com 1.10,2013-04-17 05:35:00,
2013-04-17 00:50:00,69.4,67.0,22.55,ESE,118,1.0,-999.0,91,-99.99,,,0.00,weatherlink.com 1.10,2013-04-17 05:50:00,
2013-04-17 01:05:00,69.3,67.0,22.55,East,97,0.0,-999.0,91,-99.99,,,0.00,weatherlink.com 1.10,2013-04-17 06:05:00,
2013-04-17 01:20:00,69.4,67.0,22.55,ESE,102,1.0,-999.0,91,-99.99,,,0.00,weatherlink.com 1.10,2013-04-17 06:20:00,
2013-04-17 01:35:00,69.3,67.0,25.39,SE,134,1.0,-999.0,91,-99.99,,,0.00,weatherlink.com 1.10,2013-04-17 06:35:00,
2013-04-17 01:50:00,69.2,67.0,26.89,East,82,1.0,-999.0,91,-99.99,,,0.00,weatherlink.com 1.10,2013-04-17 06:50:00,
2013-04-17 02:05:00,69.1,66.0,26.89,East,92,2.0,-999.0,91,-99.99,,,0.00,weatherlink.com 1.10,2013-04-17 07:05:00,
2013-04-17 02:20:00,69.0,66.0,26.89,ENE,75,0.0,-999.0,91,-99.99,,,0.00,weatherlink.com 1.10,2013-04-17 07:20:00,
2013-04-17 02:35:00,69.0,66.0,26.32,ENE,72,0.0,-999.0,91,-99.99,,,0.00,weatherlink.com 1.10,2013-04-17 07:35:00,
2013-04-17 02:50:00,69.0,66.0,26.32,East,93,0.0,-999.0,91,-99.99,,,0.00,weatherlink.com 1.10,2013-04-17 07:50:00,
2013-04-17 03:05:00,68.9,66.0,26.32,East,82,0.0,-999.0,91,-99.99,,,0.00,weatherlink.com 1.10,2013-04-17 08:05:00,
2013-04-17 03:20:00,68.8,66.0,26.32,ENE,68,1.0,-999.0,91,-99.99,,,0.00,weatherlink.com 1.10,2013-04-17 08:20:00,
2013-04-17 03:35:00,68.9,67.0,26.32,ENE,68,1.0,-999.0,92,-99.99,,,0.00,weatherlink.com 1.10,2013-04-17 08:35:00,
2013-04-17 03:50:00,68.9,67.0,24.37,East,87,0.0,-999.0,92,-99.99,,,0.00,weatherlink.com 1.10,2013-04-17 08:50:00,
2013-04-17 04:05:00,68.8,66.0,24.37,ESE,112,0.0,-999.0,92,-99.99,,,0.00,weatherlink.com 1.10,2013-04-17 09:05:00,
2013-04-17 04:20:00,68.7,66.0,24.37,ESE,105,1.0,-999.0,92,-99.99,,,0.00,weatherlink.com 1.10,2013-04-17 09:20:00,
2013-04-17 04:35:00,68.6,66.0,24.37,ESE,105,0.0,-999.0,92,-99.99,,,0.00,weatherlink.com 1.10,2013-04-17 09:35:00,
2013-04-17 04:50:00,68.5,66.0,24.37,East,86,0.0,-999.0,92,-99.99,,,0.00,weatherlink.com 1.10,2013-04-17 09:50:00,
2013-04-17 05:05:00,68.5,66.0,24.37,NE,45,0.0,-999.0,92,-99.99,,,0.00,weatherlink.com 1.10,2013-04-17 10:05:00,
2013-04-17 05:20:00,68.4,66.0,24.37,East,92,0.0,-999.0,92,-99.99,,,0.00,weatherlink.com 1.10,2013-04-17 10:20:00,
2013-04-17 05:35:00,68.4,66.0,24.37,ESE,109,0.0,-999.0,92,-99.99,,,0.00,weatherlink.com 1.10,2013-04-17 10:35:00,
2013-04-17 05:50:00,68.4,66.0,24.37,ESE,121,0.0,-999.0,92,-99.99,,,0.00,weatherlink.com 1.10,2013-04-17 10:50:00,
2013-04-17 06:05:00,68.3,66.0,24.37,SE,124,0.0,-999.0,92,-99.99,,,0.00,weatherlink.com 1.10,2013-04-17 11:05:00,
2013-04-17 06:20:00,68.3,66.0,24.37,ESE,110,0.0,-999.0,92,-99.99,,,0.00,weatherlink.com 1.10,2013-04-17 11:20:00,
2013-04-17 06:35:00,68.2,66.0,24.37,ESE,118,0.0,-999.0,92,-99.99,,,0.00,weatherlink.com 1.10,2013-04-17 11:35:00,
2013-04-17 06:50:00,68.2,66.0,24.37,SE,134,4.0,-999.0,91,-99.99,,,0.00,weatherlink.com 1.10,2013-04-17 11:50:00,
2013-04-17 07:05:00,68.4,66.0,26.20,East,81,1.0,-999.0,91,-99.99,,,0.00,weatherlink.com 1.10,2013-04-17 12:05:00,
2013-04-17 07:20:00,68.8,66.0,26.20,East,83,0.0,-999.0,92,-99.99,,,0.00,weatherlink.com 1.10,2013-04-17 12:20:00,
2013-04-17 07:35:00,69.2,67.0,26.20,SE,130,6.0,-999.0,92,-99.99,,,0.00,weatherlink.com 1.10,2013-04-17 12:35:00,
2013-04-17 07:50:00,69.8,67.0,26.20,SE,137,10.0,-999.0,91,-99.99,,,0.00,weatherlink.com 1.10,2013-04-17 12:50:00,
2013-04-17 08:05:00,70.4,68.0,23.93,East,86,1.0,-999.0,91,-99.99,,,0.00,weatherlink.com 1.10,2013-04-17 13:05:00,
2013-04-17 08:20:00,70.9,68.0,23.93,ESE,106,0.0,-999.0,91,-99.99,,,0.00,weatherlink.com 1.10,2013-04-17 13:20:00,
2013-04-17 08:35:00,71.7,69.0,23.93,East,88,2.0,-999.0,90,-99.99,,,0.00,weatherlink.com 1.10,2013-04-17 13:35:00,
2013-04-17 08:50:00,72.3,69.0,23.49,SE,128,4.0,-999.0,89,-99.99,,,0.00,weatherlink.com 1.10,2013-04-17 13:50:00,
2013-04-17 09:05:00,73.1,70.0,23.49,ESE,116,3.0,-999.0,89,-99.99,,,0.00,weatherlink.com 1.10,2013-04-17 14:05:00,
2013-04-17 09:21:00,73.9,70.0,23.49,ESE,111,5.0,-999.0,88,-99.99,,,0.00,weatherlink.com 1.10,2013-04-17 14:21:00,
2013-04-17 09:36:00,74.3,70.0,23.49,ESE,119,6.0,-999.0,87,-99.99,,,0.00,weatherlink.com 1.10,2013-04-17 14:36:00,
2013-04-17 09:51:00,74.8,71.0,23.49,SE,130,3.0,-999.0,87,-99.99,,,0.00,weatherlink.com 1.10,2013-04-17 14:51:00,
2013-04-17 10:06:00,75.3,71.0,23.49,ESE,119,3.0,-999.0,87,-99.99,,,0.00,weatherlink.com 1.10,2013-04-17 15:06:00,
2013-04-17 10:21:00,76.1,71.0,23.49,East,101,2.0,-999.0,85,-99.99,,,0.00,weatherlink.com 1.10,2013-04-17 15:21:00,
2013-04-17 10:36:00,76.4,72.0,0.00,ESE,117,3.0,-999.0,85,-99.99,,,0.00,weatherlink.com 1.10,2013-04-17 15:36:00,
2013-04-17 10:51:00,77.4,72.0,0.00,SE,143,11.0,-999.0,84,-99.99,,,0.00,weatherlink.com 1.10,2013-04-17 15:51:00,
2013-04-17 11:06:00,78.4,73.0,0.00,East,98,2.0,-999.0,82,-99.99,,,0.00,weatherlink.com 1.10,2013-04-17 16:06:00,
2013-04-17 11:21:00,79.0,73.0,0.00,SE,132,6.0,-999.0,81,-99.99,,,0.00,weatherlink.com 1.10,2013-04-17 16:21:00,
2013-04-17 11:51:00,79.8,73.0,0.00,East,96,2.0,-999.0,80,-99.99,,,0.00,weatherlink.com 1.10,2013-04-17 16:51:00,
2013-04-17 12:06:00,80.2,73.0,0.00,East,84,5.0,-999.0,79,-99.99,,,0.00,weatherlink.com 1.10,2013-04-17 17:06:00,
2013-04-17 12:21:00,79.4,73.0,0.00,SE,126,3.0,-999.0,81,-99.99,,,0.00,weatherlink.com 1.10,2013-04-17 17:21:00,
2013-04-17 12:36:00,79.7,73.0,0.00,ESE,110,4.0,-999.0,79,-99.99,,,0.00,weatherlink.com 1.10,2013-04-17 17:36:00,
2013-04-17 12:51:00,79.9,73.0,0.00,SE,133,6.0,-999.0,79,-99.99,,,0.00,weatherlink.com 1.10,2013-04-17 17:51:00,
2013-04-17 13:06:00,79.3,73.0,0.00,SE,132,4.0,-999.0,81,-99.99,,,0.00,weatherlink.com 1.10,2013-04-17 18:06:00,
2013-04-17 13:21:00,79.6,73.0,0.00,ESE,119,2.0,-999.0,80,-99.99,,,0.00,weatherlink.com 1.10,2013-04-17 18:21:00,
2013-04-17 13:36:00,79.7,73.0,0.00,SE,128,3.0,-999.0,79,-99.99,,,0.00,weatherlink.com 1.10,2013-04-17 18:36:00,
2013-04-17 13:51:00,79.9,73.0,0.00,SSE,164,5.0,-999.0,78,-99.99,,,0.00,weatherlink.com 1.10,2013-04-17 18:51:00,
2013-04-17 14:06:00,80.2,73.0,0.00,SE,132,4.0,-999.0,78,-99.99,,,0.00,weatherlink.com 1.10,2013-04-17 19:06:00,
2013-04-17 14:21:00,81.0,74.0,0.00,South,171,4.0,-999.0,78,-99.99,,,0.00,weatherlink.com 1.10,2013-04-17 19:21:00,
2013-04-17 14:36:00,80.5,73.0,0.00,SE,146,7.0,-999.0,78,-99.99,,,0.00,weatherlink.com 1.10,2013-04-17 19:36:00,
2013-04-17 14:51:00,80.0,73.0,0.00,ESE,111,2.0,-999.0,79,-99.99,,,0.00,weatherlink.com 1.10,2013-04-17 19:51:00,
2013-04-17 15:06:00,80.1,73.0,0.00,East,99,4.0,-999.0,78,-99.99,,,0.00,weatherlink.com 1.10,2013-04-17 20:06:00,
2013-04-17 15:21:00,79.6,72.0,0.00,ESE,107,0.0,-999.0,78,-99.99,,,0.00,weatherlink.com 1.10,2013-04-17 20:21:00,
2013-04-17 15:36:00,80.3,73.0,0.00,SSE,155,5.0,-999.0,77,-99.99,,,0.00,weatherlink.com 1.10,2013-04-17 20:36:00,
2013-04-17 15:51:00,80.3,72.0,0.00,SE,130,3.0,-999.0,76,-99.99,,,0.00,weatherlink.com 1.10,2013-04-17 20:51:00,
2013-04-17 16:06:00,80.3,71.0,0.00,SSE,150,9.0,-999.0,74,-99.99,,,0.00,weatherlink.com 1.10,2013-04-17 21:06:00,
2013-04-17 16:21:00,80.5,71.0,0.00,SSE,148,4.0,-999.0,72,-99.99,,,0.00,weatherlink.com 1.10,2013-04-17 21:21:00,
2013-04-17 16:36:00,80.6,70.0,0.00,ESE,122,3.0,-999.0,71,-99.99,,,0.00,weatherlink.com 1.10,2013-04-17 21:36:00,
2013-04-17 16:51:00,80.9,69.0,0.00,SE,128,8.0,-999.0,68,-99.99,,,0.00,weatherlink.com 1.10,2013-04-17 21:51:00,
2013-04-17 17:06:00,80.6,69.0,0.00,South,175,9.0,-999.0,68,-99.99,,,0.00,weatherlink.com 1.10,2013-04-17 22:06:00,
2013-04-17 17:21:00,79.9,69.0,0.00,ESE,113,2.0,-999.0,69,-99.99,,,0.00,weatherlink.com 1.10,2013-04-17 22:21:00,
2013-04-17 17:36:00,79.7,68.0,0.00,SSE,155,9.0,-999.0,68,-99.99,,,0.00,weatherlink.com 1.10,2013-04-17 22:36:00,
2013-04-17 17:51:00,79.7,68.0,0.00,SE,127,4.0,-999.0,67,-99.99,,,0.00,weatherlink.com 1.10,2013-04-17 22:51:00,
2013-04-17 18:06:00,79.2,68.0,0.00,SE,128,4.0,-999.0,68,-99.99,,,0.00,weatherlink.com 1.10,2013-04-17 23:06:00,
2013-04-17 18:21:00,78.7,67.0,0.00,SE,139,12.0,-999.0,68,-99.99,,,0.00,weatherlink.com 1.10,2013-04-17 23:21:00,
2013-04-17 18:36:00,78.1,66.0,0.00,ESE,103,3.0,-999.0,66,-99.99,,,0.00,weatherlink.com 1.10,2013-04-17 23:36:00,
2013-04-17 18:51:00,77.5,66.0,0.00,ESE,117,1.0,-999.0,67,-99.99,,,0.00,weatherlink.com 1.10,2013-04-17 23:51:00,
2013-04-17 19:06:00,76.4,66.0,0.00,ESE,116,3.0,-999.0,69,-99.99,,,0.00,weatherlink.com 1.10,2013-04-18 00:06:00,
2013-04-17 19:21:00,75.4,65.0,0.00,SE,130,4.0,-999.0,71,-99.99,,,0.00,weatherlink.com 1.10,2013-04-18 00:21:00,
2013-04-17 19:36:00,74.6,65.0,0.00,SE,124,0.0,-999.0,72,-99.99,,,0.00,weatherlink.com 1.10,2013-04-18 00:36:00,
2013-04-17 19:51:00,74.1,65.0,0.00,ESE,121,1.0,-999.0,72,-99.99,,,0.00,weatherlink.com 1.10,2013-04-18 00:51:00,
2013-04-17 20:06:00,73.7,65.0,0.00,SE,130,0.0,-999.0,74,-99.99,,,0.00,weatherlink.com 1.10,2013-04-18 01:06:00,
2013-04-17 20:21:00,73.1,65.0,0.00,SE,138,2.0,-999.0,76,-99.99,,,0.00,weatherlink.com 1.10,2013-04-18 01:21:00,
2013-04-17 20:51:00,71.9,65.0,0.00,ESE,109,0.0,-999.0,80,-99.99,,,0.00,weatherlink.com 1.10,2013-04-18 01:51:00,
2013-04-17 21:06:00,71.4,66.0,0.00,ESE,117,0.0,-999.0,82,-99.99,,,0.00,weatherlink.com 1.10,2013-04-18 02:06:00,
2013-04-17 21:21:00,71.0,66.0,0.00,ESE,113,2.0,-999.0,83,-99.99,,,0.00,weatherlink.com 1.10,2013-04-18 02:21:00,
2013-04-17 21:36:00,70.6,66.0,0.00,ESE,123,1.0,-999.0,84,-99.99,,,0.00,weatherlink.com 1.10,2013-04-18 02:36:00,
2013-04-17 21:51:00,70.2,66.0,0.00,East,98,1.0,-999.0,85,-99.99,,,0.00,weatherlink.com 1.10,2013-04-18 02:51:00,
2013-04-17 22:21:00,69.6,65.0,0.00,ESE,121,0.0,-999.0,86,-99.99,,,0.00,weatherlink.com 1.10,2013-04-18 03:21:00,
2013-04-17 22:36:00,69.3,65.0,0.00,ESE,121,0.0,-999.0,87,-99.99,,,0.00,weatherlink.com 1.10,2013-04-18 03:36:00,
2013-04-17 22:51:00,68.8,65.0,0.00,ESE,121,0.0,-999.0,87,-99.99,,,0.00,weatherlink.com 1.10,2013-04-18 03:51:00,
2013-04-17 23:06:00,68.4,65.0,0.00,ESE,121,0.0,-999.0,88,-99.99,,,0.00,weatherlink.com 1.10,2013-04-18 04:06:00,
2013-04-17 23:21:00,68.0,65.0,0.00,ESE,121,0.0,-999.0,89,-99.99,,,0.00,weatherlink.com 1.10,2013-04-18 04:21:00,
2013-04-17 23:37:00,67.7,64.0,0.00,ESE,121,0.0,-999.0,89,-99.99,,,0.00,weatherlink.com 1.10,2013-04-18 04:37:00,
2013-04-17 23:52:00,67.3,64.0,0.00,ESE,121,0.0,-999.0,89,-99.99,,,0.00,weatherlink.com 1.10,2013-04-18 04:52:00,